Time;durP1;ratioP1;P1;durP2;ratioP2;P2;SDS_P1;SDS_P2;PMS_P1;PMS_P2;Temp;Humidity;BMP_temperature;BMP_pressure;BME280_temperature;BME280_humidity;BME280_pressure;Samples;Min_cycle;Max_cycle;Signal;HPM_P1;HPM_P2
2021/04/06 00:00:40;;;;;;;;;;;18.30;48.70;;;;;;5000818;28;19917;-56
2021/04/06 00:03:07;;;;;;;;;;;18.30;48.70;;;;;;5001474;28;20012;-57
2021/04/06 00:05:32;;;;;;;;;;;18.30;48.80;;;;;;5001758;28;19918;-59
2021/04/06 00:07:58;;;;;;;;;;;18.30;48.70;;;;;;5000213;28;19925;-57
2021/04/06 00:10:27;;;;;;;;;;;18.30;48.60;;;;;;4999710;28;19968;-57
2021/04/06 00:12:53;;;;;;;;;;;18.20;48.60;;;;;;5000883;28;19921;-56
2021/04/06 00:15:19;;;;;;;;;;;18.20;48.60;;;;;;4996880;28;22319;-59
2021/04/06 00:17:45;;;;;;;;;;;18.20;48.60;;;;;;4997629;28;19918;-58
2021/04/06 00:20:10;;;;;;;;;;;18.20;48.60;;;;;;4998741;28;20004;-58
2021/04/06 00:22:36;;;;;;;;;;;18.20;48.50;;;;;;4998095;28;19925;-59
2021/04/06 00:25:02;;;;;;;;;;;18.20;48.50;;;;;;4996948;28;19922;-58
2021/04/06 00:27:33;;;;;;;;;;;18.20;48.40;;;;;;4999096;28;20343;-59
2021/04/06 00:30:05;;;;;;;;;;;18.10;48.50;;;;;;4998914;28;19918;-57
2021/04/06 00:32:31;;;;;;;;;;;18.10;48.70;;;;;;5000839;28;19953;-56
2021/04/06 00:34:57;;;;;;;;;;;18.10;48.30;;;;;;5001841;28;19931;-54
2021/04/06 00:37:22;;;;;;;;;;;18.00;48.40;;;;;;4998572;28;19924;-52
2021/04/06 00:39:48;;;;;;;;;;;18.00;48.50;;;;;;5000661;28;19921;-56
2021/04/06 00:42:18;;;;;;;;;;;17.90;48.50;;;;;;4998589;28;19930;-58
2021/04/06 00:44:45;;;;;;;;;;;17.90;48.50;;;;;;5001393;28;19956;-58
2021/04/06 00:47:11;;;;;;;;;;;17.90;48.60;;;;;;4997829;28;19921;-56
2021/04/06 00:49:36;;;;;;;;;;;17.90;48.60;;;;;;4999243;28;19940;-56
2021/04/06 00:52:02;;;;;;;;;;;17.90;48.60;;;;;;5000329;28;19949;-59
2021/04/06 00:54:28;;;;;;;;;;;17.80;48.60;;;;;;4999439;28;20041;-57
2021/04/06 00:56:54;;;;;;;;;;;17.80;48.60;;;;;;5000782;28;20008;-54
2021/04/06 00:59:23;;;;;;;;;;;17.80;48.80;;;;;;5003728;28;19925;-54
2021/04/06 01:01:49;;;;;;;;;;;17.80;48.80;;;;;;5004931;28;20360;-56
2021/04/06 01:04:15;;;;;;;;;;;17.70;48.70;;;;;;5002787;28;19917;-53
2021/04/06 01:06:59;;;;;;;;;;;17.70;48.80;;;;;;5004464;28;19929;-55
2021/04/06 01:09:48;;;;;;;;;;;17.70;48.80;;;;;;5004884;28;19925;-58
2021/04/06 01:12:20;;;;;;;;;;;17.70;48.90;;;;;;5000424;28;19971;-56
2021/04/06 01:14:46;;;;;;;;;;;17.70;48.90;;;;;;5003206;28;20000;-57
2021/04/06 01:17:14;;;;;;;;;;;17.80;48.90;;;;;;5003423;28;20390;-57
2021/04/06 01:19:39;;;;;;;;;;;17.80;48.90;;;;;;5004941;28;19921;-57
2021/04/06 01:22:06;;;;;;;;;;;17.90;48.70;;;;;;5004042;28;19921;-57
2021/04/06 01:24:32;;;;;;;;;;;18.00;48.80;;;;;;5002516;28;19917;-55
2021/04/06 01:26:57;;;;;;;;;;;18.00;48.50;;;;;;5004333;28;19921;-58
2021/04/06 01:29:23;;;;;;;;;;;18.10;48.50;;;;;;5002432;28;20379;-57
2021/04/06 01:31:49;;;;;;;;;;;18.10;48.40;;;;;;5004180;28;20532;-57
2021/04/06 01:34:14;;;;;;;;;;;18.20;48.40;;;;;;4985312;28;19930;-57
2021/04/06 01:36:40;;;;;;;;;;;18.20;48.30;;;;;;5002677;28;19925;-58
2021/04/06 01:39:05;;;;;;;;;;;18.30;48.40;;;;;;5002038;28;19917;-57
2021/04/06 01:41:31;;;;;;;;;;;18.30;48.30;;;;;;5004541;28;19975;-58
2021/04/06 01:43:56;;;;;;;;;;;18.30;48.20;;;;;;5002309;28;19918;-55
2021/04/06 01:46:31;;;;;;;;;;;18.30;48.30;;;;;;5002356;28;19929;-59
2021/04/06 01:48:57;;;;;;;;;;;18.30;48.20;;;;;;5003212;28;19924;-59
2021/04/06 01:51:22;;;;;;;;;;;18.30;48.20;;;;;;5003966;28;19925;-59
2021/04/06 01:53:48;;;;;;;;;;;18.30;48.20;;;;;;5003106;28;19933;-59
2021/04/06 01:56:15;;;;;;;;;;;18.30;48.30;;;;;;5003798;28;19960;-55
2021/04/06 01:58:46;;;;;;;;;;;18.30;48.40;;;;;;5002619;28;20292;-56
2021/04/06 02:01:23;;;;;;;;;;;18.30;48.40;;;;;;5002936;28;19925;-58
2021/04/06 02:03:55;;;;;;;;;;;18.20;48.30;;;;;;5003695;28;19928;-58
2021/04/06 02:06:20;;;;;;;;;;;18.20;48.50;;;;;;5003976;28;19949;-57
2021/04/06 02:08:49;;;;;;;;;;;18.20;48.40;;;;;;5002524;28;20379;-56
2021/04/06 02:11:21;;;;;;;;;;;18.20;48.30;;;;;;5000864;28;19980;-58
2021/04/06 02:13:47;;;;;;;;;;;18.20;48.20;;;;;;5002918;28;19926;-57
2021/04/06 02:16:12;;;;;;;;;;;18.20;48.20;;;;;;5004154;28;19918;-57
2021/04/06 02:18:38;;;;;;;;;;;18.20;48.00;;;;;;5002960;28;19922;-56
2021/04/06 02:21:04;;;;;;;;;;;18.20;48.00;;;;;;5002720;28;20501;-54
2021/04/06 02:23:39;;;;;;;;;;;18.20;47.90;;;;;;5004009;28;19945;-56
2021/04/06 02:26:05;;;;;;;;;;;18.20;47.90;;;;;;5003046;28;19918;-58
2021/04/06 02:28:30;;;;;;;;;;;18.20;47.90;;;;;;5002436;28;20470;-60
2021/04/06 02:30:59;;;;;;;;;;;18.20;48.00;;;;;;5003946;28;20397;-58
2021/04/06 02:33:25;;;;;;;;;;;18.20;48.00;;;;;;5003165;28;20008;-57
2021/04/06 02:35:54;;;;;;;;;;;18.20;48.00;;;;;;5002087;28;20427;-59
2021/04/06 02:38:20;;;;;;;;;;;18.10;47.90;;;;;;5002386;28;19917;-57
2021/04/06 02:40:45;;;;;;;;;;;18.10;47.90;;;;;;5001776;28;20338;-59
2021/04/06 02:43:10;;;;;;;;;;;18.10;48.00;;;;;;5002012;28;19921;-56
2021/04/06 02:45:36;;;;;;;;;;;18.10;48.10;;;;;;5003397;28;19924;-53
2021/04/06 02:48:05;;;;;;;;;;;18.00;48.00;;;;;;5002304;28;19925;-58
2021/04/06 02:50:31;;;;;;;;;;;18.00;48.10;;;;;;5002351;28;19933;-56
2021/04/06 02:52:56;;;;;;;;;;;18.00;48.00;;;;;;5002623;28;20018;-56
2021/04/06 02:55:22;;;;;;;;;;;18.00;48.10;;;;;;5002559;28;20721;-57
2021/04/06 02:57:48;;;;;;;;;;;17.90;48.10;;;;;;5001863;28;20075;-53
2021/04/06 03:00:28;;;;;;;;;;;17.90;48.00;;;;;;5001512;28;19984;-55
2021/04/06 03:02:58;;;;;;;;;;;17.90;48.00;;;;;;5003148;28;19924;-59
2021/04/06 03:05:27;;;;;;;;;;;17.80;48.00;;;;;;5002106;28;19917;-56
2021/04/06 03:07:52;;;;;;;;;;;17.80;48.10;;;;;;5002035;28;19965;-56
2021/04/06 03:10:18;;;;;;;;;;;17.80;48.20;;;;;;5001895;28;20152;-58
2021/04/06 03:12:44;;;;;;;;;;;17.80;48.10;;;;;;5001531;28;19929;-56
2021/04/06 03:15:10;;;;;;;;;;;17.70;48.10;;;;;;5000063;28;19917;-55
2021/04/06 03:17:45;;;;;;;;;;;17.70;48.20;;;;;;5001508;28;19924;-57
2021/04/06 03:20:11;;;;;;;;;;;17.70;48.30;;;;;;5001619;28;19917;-57
2021/04/06 03:22:37;;;;;;;;;;;17.70;48.30;;;;;;5001552;28;19921;-57
2021/04/06 03:25:02;;;;;;;;;;;17.70;48.40;;;;;;4999748;28;19924;-55
2021/04/06 03:27:28;;;;;;;;;;;17.70;48.40;;;;;;5002798;28;19925;-57
2021/04/06 03:29:54;;;;;;;;;;;17.70;48.40;;;;;;5000748;28;19924;-58
2021/04/06 03:32:20;;;;;;;;;;;17.60;48.40;;;;;;5002323;28;19918;-58
2021/04/06 03:34:46;;;;;;;;;;;17.60;48.50;;;;;;5001499;28;20389;-58
2021/04/06 03:37:11;;;;;;;;;;;17.60;48.50;;;;;;5000321;28;20008;-56
2021/04/06 03:39:37;;;;;;;;;;;17.60;48.40;;;;;;4999864;28;19921;-57
2021/04/06 03:42:03;;;;;;;;;;;17.70;48.60;;;;;;5001819;28;19917;-56
2021/04/06 03:44:28;;;;;;;;;;;17.70;48.60;;;;;;5001435;28;19917;-58
2021/04/06 03:46:55;;;;;;;;;;;17.70;48.60;;;;;;5002532;28;19983;-58
2021/04/06 03:49:26;;;;;;;;;;;17.80;48.50;;;;;;5001082;28;19918;-57
2021/04/06 03:51:52;;;;;;;;;;;17.90;48.30;;;;;;5000146;28;20008;-58
2021/04/06 03:54:30;;;;;;;;;;;18.00;48.40;;;;;;5001485;28;20291;-56
2021/04/06 03:56:55;;;;;;;;;;;18.00;48.30;;;;;;5001794;28;20338;-58
2021/04/06 03:59:26;;;;;;;;;;;18.00;48.30;;;;;;5000262;28;19925;-59
2021/04/06 04:01:51;;;;;;;;;;;18.10;48.30;;;;;;4999635;28;19926;-55
2021/04/06 04:04:17;;;;;;;;;;;18.10;48.10;;;;;;5001621;28;19923;-57
2021/04/06 04:06:42;;;;;;;;;;;18.20;48.10;;;;;;5001609;28;19927;-57
2021/04/06 04:09:08;;;;;;;;;;;18.20;48.00;;;;;;5000998;28;19918;-56
2021/04/06 04:11:33;;;;;;;;;;;18.30;48.00;;;;;;5000768;28;19917;-58
2021/04/06 04:13:58;;;;;;;;;;;18.30;48.00;;;;;;5002275;28;19921;-54
2021/04/06 04:16:24;;;;;;;;;;;18.30;48.00;;;;;;5000453;28;19933;-55
2021/04/06 04:18:51;;;;;;;;;;;18.20;47.80;;;;;;5001802;28;19980;-58
2021/04/06 04:21:16;;;;;;;;;;;18.30;47.80;;;;;;5001532;28;20430;-57
2021/04/06 04:23:42;;;;;;;;;;;18.20;47.80;;;;;;5001619;28;19924;-57
2021/04/06 04:26:07;;;;;;;;;;;18.20;48.00;;;;;;5001582;28;19921;-54
2021/04/06 04:28:33;;;;;;;;;;;18.20;48.10;;;;;;4999924;28;20379;-58
2021/04/06 04:31:00;;;;;;;;;;;18.20;48.00;;;;;;5000149;28;19967;-57
2021/04/06 04:33:26;;;;;;;;;;;18.20;48.00;;;;;;5002459;28;19968;-58
2021/04/06 04:35:51;;;;;;;;;;;18.10;48.00;;;;;;5005530;28;19984;-58
2021/04/06 04:38:17;;;;;;;;;;;18.10;48.00;;;;;;5003820;28;19925;-56
2021/04/06 04:40:42;;;;;;;;;;;18.10;48.10;;;;;;5002982;28;20358;-54
2021/04/06 04:43:09;;;;;;;;;;;18.20;47.90;;;;;;5004242;28;19918;-58
2021/04/06 04:45:34;;;;;;;;;;;18.20;47.80;;;;;;5019683;23;19917;31
2021/04/06 04:47:59;;;;;;;;;;;18.20;47.70;;;;;;5019719;28;19936;-60
2021/04/06 04:50:25;;;;;;;;;;;18.20;47.70;;;;;;5023247;28;19963;-61
2021/04/06 04:52:51;;;;;;;;;;;18.20;47.80;;;;;;5023422;28;20532;-60
2021/04/06 04:55:17;;;;;;;;;;;18.20;47.60;;;;;;5024588;28;19921;-61
2021/04/06 04:57:42;;;;;;;;;;;18.20;47.80;;;;;;5022446;28;19917;-59
2021/04/06 05:00:08;;;;;;;;;;;18.20;47.80;;;;;;5021132;28;20634;-61
2021/04/06 05:02:33;;;;;;;;;;;18.10;47.70;;;;;;5022992;28;19921;-60
2021/04/06 05:04:59;;;;;;;;;;;18.10;47.80;;;;;;5024749;28;20413;-60
2021/04/06 05:07:24;;;;;;;;;;;18.10;47.80;;;;;;5024763;28;19921;-61
2021/04/06 05:09:50;;;;;;;;;;;18.10;48.00;;;;;;5024507;28;19952;-61
2021/04/06 05:12:15;;;;;;;;;;;18.00;47.90;;;;;;5025131;28;20028;-60
2021/04/06 05:14:41;;;;;;;;;;;18.00;48.00;;;;;;5025602;28;19929;-60
2021/04/06 05:17:06;;;;;;;;;;;18.00;48.10;;;;;;5024939;28;19991;-66
2021/04/06 05:19:32;;;;;;;;;;;18.00;48.20;;;;;;5025003;28;19987;-62
2021/04/06 05:21:57;;;;;;;;;;;18.00;48.10;;;;;;5024501;28;19924;-61
2021/04/06 05:24:22;;;;;;;;;;;18.00;48.10;;;;;;5024982;28;19923;-62
2021/04/06 05:26:48;;;;;;;;;;;17.90;48.00;;;;;;5024718;28;19917;-62
2021/04/06 05:29:14;;;;;;;;;;;17.90;48.10;;;;;;5023128;28;19953;-60
2021/04/06 05:31:39;;;;;;;;;;;17.90;48.10;;;;;;5023418;28;20645;-59
2021/04/06 05:34:05;;;;;;;;;;;17.80;48.00;;;;;;5025541;28;19921;-61
2021/04/06 05:36:30;;;;;;;;;;;17.80;48.10;;;;;;5023827;28;19971;-60
2021/04/06 05:38:55;;;;;;;;;;;17.70;48.20;;;;;;5024960;28;19940;-61
2021/04/06 05:41:21;;;;;;;;;;;17.70;48.30;;;;;;5022976;28;20394;-62
2021/04/06 05:43:46;;;;;;;;;;;17.70;48.30;;;;;;5023310;28;19956;-59
2021/04/06 05:46:12;;;;;;;;;;;17.60;48.40;;;;;;5023044;28;19928;-62
2021/04/06 05:48:37;;;;;;;;;;;17.60;48.40;;;;;;5002322;28;19984;-62
2021/04/06 05:51:03;;;;;;;;;;;17.60;48.60;;;;;;5039006;28;19979;-61
2021/04/06 05:53:29;;;;;;;;;;;17.50;48.50;;;;;;5022460;28;20390;-62
2021/04/06 05:55:57;;;;;;;;;;;17.50;48.60;;;;;;5021014;28;19921;-61
2021/04/06 05:58:22;;;;;;;;;;;17.50;49.00;;;;;;5021670;28;19918;-62
2021/04/06 06:00:48;;;;;;;;;;;17.50;49.20;;;;;;5022972;28;19955;-62
2021/04/06 06:03:13;;;;;;;;;;;17.50;49.40;;;;;;5021826;28;19918;-59
2021/04/06 06:05:40;;;;;;;;;;;17.50;49.50;;;;;;5023355;28;19917;-61
2021/04/06 06:08:12;;;;;;;;;;;17.50;49.50;;;;;;5024511;28;19921;-62
2021/04/06 06:10:37;;;;;;;;;;;17.50;49.40;;;;;;5013767;28;19963;-59
2021/04/06 06:13:15;;;;;;;;;;;17.50;49.20;;;;;;5023983;28;19918;-60
2021/04/06 06:15:40;;;;;;;;;;;17.60;49.20;;;;;;5023292;28;20290;-59
2021/04/06 06:18:06;;;;;;;;;;;17.60;49.30;;;;;;5024946;28;19917;-60
2021/04/06 06:20:32;;;;;;;;;;;17.60;49.20;;;;;;5021822;28;20405;-60
2021/04/06 06:23:16;;;;;;;;;;;17.70;49.00;;;;;;5023196;28;19925;-60
2021/04/06 06:25:41;;;;;;;;;;;17.70;49.00;;;;;;5023809;28;20385;-60
2021/04/06 06:28:09;;;;;;;;;;;17.80;49.00;;;;;;5023704;28;19917;-59
2021/04/06 06:30:36;;;;;;;;;;;17.90;49.00;;;;;;5024286;28;20279;-60
2021/04/06 06:33:20;;;;;;;;;;;17.90;48.90;;;;;;5021298;28;19928;-60
2021/04/06 06:35:55;;;;;;;;;;;17.90;48.80;;;;;;5023765;28;19928;-58
2021/04/06 06:38:30;;;;;;;;;;;18.00;48.90;;;;;;5022936;28;19925;-59
2021/04/06 06:40:56;;;;;;;;;;;18.00;48.80;;;;;;5023718;28;19917;-57
2021/04/06 06:43:23;;;;;;;;;;;18.00;48.80;;;;;;5022792;28;19917;-59
2021/04/06 06:45:49;;;;;;;;;;;18.00;48.80;;;;;;5024075;28;19928;-58
2021/04/06 06:48:45;;;;;;;;;;;18.00;48.80;;;;;;5023766;28;19921;-58
2021/04/06 06:51:10;;;;;;;;;;;18.00;48.80;;;;;;5009635;28;19936;-59
2021/04/06 06:53:39;;;;;;;;;;;18.00;49.00;;;;;;5022594;28;19925;-59
2021/04/06 06:56:05;;;;;;;;;;;18.10;49.00;;;;;;5023773;28;19917;-60
2021/04/06 06:58:35;;;;;;;;;;;18.10;49.00;;;;;;5021529;28;20643;-60
2021/04/06 07:01:00;;;;;;;;;;;18.10;49.00;;;;;;5022753;28;19940;-59
2021/04/06 07:03:26;;;;;;;;;;;18.10;49.00;;;;;;5005447;28;19942;-60
2021/04/06 07:05:51;;;;;;;;;;;18.10;49.10;;;;;;5022471;28;19917;-59
2021/04/06 07:08:33;;;;;;;;;;;18.10;49.30;;;;;;5030940;28;20587;-58
2021/04/06 07:11:00;;;;;;;;;;;18.10;49.30;;;;;;5023079;28;19947;-60
2021/04/06 07:13:32;;;;;;;;;;;18.10;49.30;;;;;;5021466;28;20562;-58
2021/04/06 07:15:58;;;;;;;;;;;18.00;49.40;;;;;;5022352;28;19917;-59
2021/04/06 07:18:26;;;;;;;;;;;18.00;49.50;;;;;;5021547;28;19924;-59
2021/04/06 07:20:52;;;;;;;;;;;18.00;49.50;;;;;;5023428;28;19961;-60
2021/04/06 07:23:22;;;;;;;;;;;18.00;49.40;;;;;;5023129;28;20034;-59
2021/04/06 07:25:48;;;;;;;;;;;18.10;49.40;;;;;;5022358;28;20481;-60
2021/04/06 07:28:15;;;;;;;;;;;18.10;49.20;;;;;;5022464;28;20639;-59
2021/04/06 07:30:40;;;;;;;;;;;18.10;49.10;;;;;;5022560;28;20586;-59
2021/04/06 07:33:06;;;;;;;;;;;18.10;48.90;;;;;;5021348;28;19928;-60
2021/04/06 07:35:31;;;;;;;;;;;18.10;48.90;;;;;;5023621;28;20455;-59
2021/04/06 07:37:56;;;;;;;;;;;18.10;48.90;;;;;;5021170;28;20452;-58
2021/04/06 07:40:22;;;;;;;;;;;18.00;48.90;;;;;;5023125;28;19931;-60
2021/04/06 07:42:48;;;;;;;;;;;18.00;49.00;;;;;;5020798;28;20394;-59
2021/04/06 07:45:40;;;;;;;;;;;18.00;48.90;;;;;;5021687;28;19928;-59
2021/04/06 07:48:05;;;;;;;;;;;17.90;48.80;;;;;;5019629;28;19947;-60
2021/04/06 07:50:33;;;;;;;;;;;18.00;49.10;;;;;;5021157;28;20572;-58
2021/04/06 07:53:17;;;;;;;;;;;17.90;49.00;;;;;;5022260;28;19976;-60
2021/04/06 07:55:43;;;;;;;;;;;17.90;49.00;;;;;;5022841;28;19986;-61
2021/04/06 07:58:08;;;;;;;;;;;17.90;49.00;;;;;;5022810;28;20438;-60
2021/04/06 08:00:49;;;;;;;;;;;17.90;49.00;;;;;;5022288;28;19917;-59
2021/04/06 08:03:33;;;;;;;;;;;17.80;49.00;;;;;;5022190;28;20341;-58
2021/04/06 08:06:21;;;;;;;;;;;17.80;49.00;;;;;;5022454;28;22027;-57
2021/04/06 08:08:46;;;;;;;;;;;17.80;49.20;;;;;;5020848;28;19921;-57
2021/04/06 08:11:12;;;;;;;;;;;17.80;49.20;;;;;;5022654;28;19931;-59
2021/04/06 08:13:38;;;;;;;;;;;17.80;49.40;;;;;;5021108;28;19928;-58
2021/04/06 08:16:13;;;;;;;;;;;17.80;49.50;;;;;;5020624;28;19952;-59
2021/04/06 08:18:48;;;;;;;;;;;17.80;49.80;;;;;;5022813;28;19925;-59
2021/04/06 08:21:13;;;;;;;;;;;17.80;49.70;;;;;;5022120;28;19917;-60
2021/04/06 08:23:40;;;;;;;;;;;17.70;49.80;;;;;;5022596;28;19917;-59
2021/04/06 08:26:06;;;;;;;;;;;17.70;49.90;;;;;;5021250;28;19917;-60
2021/04/06 08:28:32;;;;;;;;;;;17.70;50.10;;;;;;5019776;28;20392;-59
2021/04/06 08:31:17;;;;;;;;;;;17.70;50.00;;;;;;5022391;28;19987;-60
2021/04/06 08:33:43;;;;;;;;;;;17.70;50.00;;;;;;5021676;28;19925;-60
2021/04/06 08:36:08;;;;;;;;;;;17.70;50.00;;;;;;5022865;28;19932;-60
2021/04/06 08:38:33;;;;;;;;;;;17.70;49.90;;;;;;5020440;28;19921;-60
2021/04/06 08:41:00;;;;;;;;;;;17.70;50.00;;;;;;5022011;28;20352;-60
2021/04/06 08:43:34;;;;;;;;;;;17.70;49.90;;;;;;5020395;28;20348;-60
2021/04/06 08:46:03;;;;;;;;;;;17.70;49.90;;;;;;5021745;28;20321;-60
2021/04/06 08:48:47;;;;;;;;;;;17.60;49.80;;;;;;5021019;28;19917;-60
2021/04/06 08:51:29;;;;;;;;;;;17.60;49.80;;;;;;5021634;28;20032;-58
2021/04/06 08:53:55;;;;;;;;;;;17.70;49.90;;;;;;5020115;28;20457;-59
2021/04/06 08:56:22;;;;;;;;;;;17.60;50.20;;;;;;5022235;28;19921;-59
2021/04/06 08:58:47;;;;;;;;;;;17.50;50.60;;;;;;5019673;28;19953;-59
2021/04/06 09:01:13;;;;;;;;;;;17.50;51.00;;;;;;5021137;28;19983;-58
2021/04/06 09:03:38;;;;;;;;;;;17.50;51.20;;;;;;5021783;28;19928;-58
2021/04/06 09:06:08;;;;;;;;;;;17.60;51.20;;;;;;5014517;28;20444;-58
2021/04/06 09:08:49;;;;;;;;;;;17.60;51.10;;;;;;5020216;28;19917;-58
2021/04/06 09:11:15;;;;;;;;;;;17.70;51.00;;;;;;5020006;28;19917;-58
2021/04/06 09:13:40;;;;;;;;;;;17.70;50.80;;;;;;5020974;28;19921;-59
2021/04/06 09:16:06;;;;;;;;;;;17.80;50.90;;;;;;5021913;28;20302;-58
2021/04/06 09:18:35;;;;;;;;;;;17.90;50.70;;;;;;5020076;28;19925;-59
2021/04/06 09:21:01;;;;;;;;;;;18.00;50.80;;;;;;5022916;28;19941;-59
2021/04/06 09:23:27;;;;;;;;;;;18.10;50.70;;;;;;5024091;28;19917;-59
2021/04/06 09:25:53;;;;;;;;;;;18.20;50.90;;;;;;5023619;28;19917;-58
2021/04/06 09:28:18;;;;;;;;;;;18.20;50.60;;;;;;5023840;28;19979;-58
2021/04/06 09:30:44;;;;;;;;;;;18.20;50.50;;;;;;5024147;28;19921;-59
2021/04/06 09:33:11;;;;;;;;;;;18.30;50.50;;;;;;5021502;28;19921;-58
2021/04/06 09:35:36;;;;;;;;;;;18.30;50.50;;;;;;5024614;28;19918;-59
2021/04/06 09:38:02;;;;;;;;;;;18.30;50.50;;;;;;5022155;28;19928;-59
2021/04/06 09:40:30;;;;;;;;;;;18.30;50.50;;;;;;5023110;28;19925;-59
2021/04/06 09:42:56;;;;;;;;;;;18.30;50.40;;;;;;5023358;28;19948;-59
2021/04/06 09:45:21;;;;;;;;;;;18.30;50.40;;;;;;5022406;28;19952;-57
2021/04/06 09:47:47;;;;;;;;;;;18.30;50.50;;;;;;5023962;28;20659;-58
2021/04/06 09:50:12;;;;;;;;;;;18.20;50.40;;;;;;5023067;28;19924;-59
2021/04/06 09:52:38;;;;;;;;;;;18.20;50.40;;;;;;5023181;28;19921;-58
2021/04/06 09:55:05;;;;;;;;;;;18.20;50.50;;;;;;5020170;28;19954;-59
2021/04/06 09:57:32;;;;;;;;;;;18.20;50.50;;;;;;5023369;28;19971;-57
2021/04/06 09:59:57;;;;;;;;;;;18.20;50.50;;;;;;5024009;28;19917;-60
2021/04/06 10:02:24;;;;;;;;;;;18.20;50.60;;;;;;5023580;28;20716;-58
2021/04/06 10:04:50;;;;;;;;;;;18.10;50.60;;;;;;5021954;28;19917;-59
2021/04/06 10:07:17;;;;;;;;;;;18.10;50.70;;;;;;5020690;28;19917;-58
2021/04/06 10:09:47;;;;;;;;;;;18.00;50.80;;;;;;5022880;28;19917;-59
2021/04/06 10:12:13;;;;;;;;;;;17.90;50.80;;;;;;5017139;28;19928;-58
2021/04/06 10:14:38;;;;;;;;;;;17.90;50.90;;;;;;5023003;28;19925;-58
2021/04/06 10:17:05;;;;;;;;;;;17.90;51.60;;;;;;5021233;28;19921;-59
2021/04/06 10:19:31;;;;;;;;;;;17.90;51.00;;;;;;5022115;28;20314;-59
2021/04/06 10:21:57;;;;;;;;;;;17.80;51.10;;;;;;5022857;28;19931;-59
2021/04/06 10:24:24;;;;;;;;;;;17.90;51.20;;;;;;5022730;28;19917;-59
2021/04/06 10:27:02;;;;;;;;;;;17.90;51.30;;;;;;5020826;28;19917;-59
2021/04/06 10:29:30;;;;;;;;;;;17.80;51.30;;;;;;5022425;28;19924;-59
2021/04/06 10:31:59;;;;;;;;;;;17.80;51.30;;;;;;5022200;28;19921;-59
2021/04/06 10:34:24;;;;;;;;;;;17.80;51.30;;;;;;5023110;28;20000;-58
2021/04/06 10:36:53;;;;;;;;;;;17.80;51.30;;;;;;5024156;28;19996;-60
2021/04/06 10:39:19;;;;;;;;;;;17.80;51.30;;;;;;5021730;28;19996;-60
2021/04/06 10:41:44;;;;;;;;;;;17.80;51.40;;;;;;5021785;28;20615;-58
2021/04/06 10:44:10;;;;;;;;;;;17.80;51.30;;;;;;5021100;28;20115;-60
2021/04/06 10:46:40;;;;;;;;;;;17.80;51.30;;;;;;5021731;28;19921;-60
2021/04/06 10:49:06;;;;;;;;;;;17.80;51.30;;;;;;5020952;28;19921;-60
2021/04/06 10:51:32;;;;;;;;;;;17.80;51.20;;;;;;5022276;28;19924;-59
2021/04/06 10:53:58;;;;;;;;;;;17.80;51.10;;;;;;5020769;28;19921;-60
2021/04/06 10:56:24;;;;;;;;;;;17.80;51.10;;;;;;5020833;28;19920;-59
2021/04/06 10:58:51;;;;;;;;;;;17.90;51.00;;;;;;5022196;28;19956;-59
2021/04/06 11:01:27;;;;;;;;;;;17.90;50.90;;;;;;5020987;28;19952;-59
2021/04/06 11:03:52;;;;;;;;;;;17.90;50.80;;;;;;5019993;28;19917;-59
2021/04/06 11:06:22;;;;;;;;;;;17.90;50.80;;;;;;5019938;28;19917;-60
2021/04/06 11:08:49;;;;;;;;;;;17.90;50.70;;;;;;5021604;28;20417;-59
2021/04/06 11:11:16;;;;;;;;;;;17.90;50.70;;;;;;5020439;28;19928;-58
2021/04/06 11:13:42;;;;;;;;;;;17.90;50.80;;;;;;5021984;28;19929;-58
2021/04/06 11:16:07;;;;;;;;;;;17.90;51.00;;;;;;5022015;28;19917;-59
2021/04/06 11:18:34;;;;;;;;;;;17.80;51.10;;;;;;5022038;28;19932;-59
2021/04/06 11:20:59;;;;;;;;;;;17.80;51.20;;;;;;5020005;28;20027;-57
2021/04/06 11:23:24;;;;;;;;;;;17.80;51.20;;;;;;5020279;28;19921;-58
2021/04/06 11:25:50;;;;;;;;;;;17.80;51.20;;;;;;5021811;28;19925;-59
2021/04/06 11:28:16;;;;;;;;;;;17.80;51.30;;;;;;5021185;28;19928;-59
2021/04/06 11:30:42;;;;;;;;;;;17.80;51.30;;;;;;5021674;28;20020;-61
2021/04/06 11:33:07;;;;;;;;;;;17.80;51.30;;;;;;5021524;28;19975;-60
2021/04/06 11:35:33;;;;;;;;;;;17.70;51.30;;;;;;5020679;28;19917;-60
2021/04/06 11:37:59;;;;;;;;;;;17.70;51.30;;;;;;5019345;28;19967;-55
2021/04/06 11:40:25;;;;;;;;;;;17.70;51.30;;;;;;5020325;28;19931;-60
2021/04/06 11:42:51;;;;;;;;;;;17.70;51.40;;;;;;5021465;28;19917;-60
2021/04/06 11:45:16;;;;;;;;;;;17.70;51.50;;;;;;5021056;28;19921;-59
2021/04/06 11:47:42;;;;;;;;;;;17.70;51.50;;;;;;5010808;28;20590;-58
2021/04/06 11:50:07;;;;;;;;;;;17.70;51.60;;;;;;5001836;28;19972;-56
2021/04/06 11:52:33;;;;;;;;;;;17.70;51.50;;;;;;5007239;28;19925;-58
2021/04/06 11:54:59;;;;;;;;;;;17.70;51.60;;;;;;5020127;28;19921;-60
2021/04/06 11:57:24;;;;;;;;;;;17.70;51.50;;;;;;5017530;28;20007;-60
2021/04/06 11:59:52;;;;;;;;;;;17.70;51.70;;;;;;5019866;28;20554;-57
2021/04/06 12:02:17;;;;;;;;;;;17.70;52.40;;;;;;5021427;28;20077;-58
2021/04/06 12:04:43;;;;;;;;;;;17.70;52.00;;;;;;5002578;28;19971;-59
2021/04/06 12:07:08;;;;;;;;;;;17.70;52.10;;;;;;5020965;28;19924;-58
2021/04/06 12:09:34;;;;;;;;;;;17.70;52.20;;;;;;5018709;28;19932;-58
2021/04/06 12:11:59;;;;;;;;;;;17.70;52.30;;;;;;5020412;28;19921;-59
2021/04/06 12:14:24;;;;;;;;;;;17.70;52.40;;;;;;5020914;28;19971;-59
2021/04/06 12:16:50;;;;;;;;;;;17.70;52.40;;;;;;5021350;28;19924;-57
2021/04/06 12:19:15;;;;;;;;;;;17.70;52.40;;;;;;5020624;28;20312;-58
2021/04/06 12:21:41;;;;;;;;;;;17.60;52.40;;;;;;5021433;28;19932;-60
2021/04/06 12:24:06;;;;;;;;;;;17.60;52.40;;;;;;5018607;28;19924;-58
2021/04/06 12:26:32;;;;;;;;;;;17.60;52.40;;;;;;5020396;28;20389;-58
2021/04/06 12:28:59;;;;;;;;;;;17.70;52.50;;;;;;5018901;28;19917;-61
2021/04/06 12:31:24;;;;;;;;;;;17.60;52.60;;;;;;5021690;28;20422;-61
2021/04/06 12:33:50;;;;;;;;;;;17.60;52.50;;;;;;5020656;28;19929;-59
2021/04/06 12:36:15;;;;;;;;;;;17.60;52.60;;;;;;5021104;28;20417;-60
2021/04/06 12:38:40;;;;;;;;;;;17.60;52.60;;;;;;5019217;28;19921;-60
2021/04/06 12:41:06;;;;;;;;;;;17.60;52.70;;;;;;5020961;28;19917;-59
2021/04/06 12:43:32;;;;;;;;;;;17.60;52.80;;;;;;5020603;28;20393;-60
2021/04/06 12:45:58;;;;;;;;;;;17.60;52.70;;;;;;5020684;28;19928;-60
2021/04/06 12:48:23;;;;;;;;;;;17.60;52.60;;;;;;5019881;28;19922;-59
2021/04/06 12:50:49;;;;;;;;;;;17.60;52.60;;;;;;5021024;28;19944;-59
2021/04/06 12:53:14;;;;;;;;;;;17.60;52.60;;;;;;5020152;28;19917;-60
2021/04/06 12:55:39;;;;;;;;;;;17.60;52.60;;;;;;5025235;28;19917;-58
2021/04/06 12:58:05;;;;;;;;;;;17.60;52.50;;;;;;5024598;28;19924;-58
2021/04/06 13:00:30;;;;;;;;;;;17.60;52.60;;;;;;5024708;28;19925;-59
2021/04/06 13:02:56;;;;;;;;;;;17.60;52.60;;;;;;5023647;28;19917;-60
2021/04/06 13:05:21;;;;;;;;;;;17.60;52.60;;;;;;5023092;28;20510;-58
2021/04/06 13:07:47;;;;;;;;;;;17.60;52.60;;;;;;5023737;28;19917;-60
2021/04/06 13:10:17;;;;;;;;;;;17.60;52.60;;;;;;5024833;28;20370;-58
2021/04/06 13:12:42;;;;;;;;;;;17.60;52.70;;;;;;5022977;28;20733;-60
2021/04/06 13:15:08;;;;;;;;;;;17.60;52.70;;;;;;5023670;28;19921;-56
2021/04/06 13:17:33;;;;;;;;;;;17.60;52.80;;;;;;5025001;28;19924;-59
2021/04/06 13:19:59;;;;;;;;;;;17.50;53.00;;;;;;5025333;28;20341;-58
2021/04/06 13:22:24;;;;;;;;;;;17.50;53.10;;;;;;5023240;28;19925;-60
2021/04/06 13:24:50;;;;;;;;;;;17.50;53.20;;;;;;5023962;28;19917;-61
2021/04/06 13:27:15;;;;;;;;;;;17.50;53.30;;;;;;5023860;28;19924;-61
2021/04/06 13:29:41;;;;;;;;;;;17.40;53.50;;;;;;5024257;28;20267;-58
2021/04/06 13:32:06;;;;;;;;;;;17.40;53.50;;;;;;5023050;28;20004;-57
2021/04/06 13:34:32;;;;;;;;;;;17.40;53.50;;;;;;5021805;28;19921;-59
2021/04/06 13:36:57;;;;;;;;;;;17.40;53.50;;;;;;5023263;28;19921;-59
2021/04/06 13:39:23;;;;;;;;;;;17.50;53.50;;;;;;5023139;28;20310;-61
2021/04/06 13:41:48;;;;;;;;;;;17.50;53.30;;;;;;5023701;28;19921;-59
2021/04/06 13:44:14;;;;;;;;;;;17.50;53.20;;;;;;5023159;28;19940;-60
2021/04/06 13:46:39;;;;;;;;;;;17.50;53.20;;;;;;5023852;28;19921;-59
2021/04/06 13:49:04;;;;;;;;;;;17.60;53.20;;;;;;5022546;28;19925;-59
2021/04/06 13:51:30;;;;;;;;;;;17.60;53.20;;;;;;5022471;28;19926;-59
2021/04/06 13:53:55;;;;;;;;;;;17.60;53.20;;;;;;5023686;28;20429;-60
2021/04/06 13:56:21;;;;;;;;;;;17.60;53.20;;;;;;5024253;28;19995;-58
2021/04/06 13:58:46;;;;;;;;;;;17.60;53.10;;;;;;5022949;28;19923;-60
2021/04/06 14:01:12;;;;;;;;;;;17.60;53.10;;;;;;5023889;28;19917;-59
2021/04/06 14:03:37;;;;;;;;;;;17.60;53.10;;;;;;5021408;28;19971;-61
2021/04/06 14:06:03;;;;;;;;;;;17.60;53.00;;;;;;5022270;28;19961;-58
2021/04/06 14:08:28;;;;;;;;;;;17.60;53.00;;;;;;5022794;28;19932;-59
2021/04/06 14:10:54;;;;;;;;;;;17.60;53.10;;;;;;5023109;28;20536;-59
2021/04/06 14:13:19;;;;;;;;;;;17.60;53.00;;;;;;5022677;28;20019;-59
2021/04/06 14:15:45;;;;;;;;;;;17.60;53.00;;;;;;5023017;28;19917;-58